sensor_id;sensor_type;location;lat;lon;timestamp;temperature;humidity
49242;DHT22;35079;52.704;13.814;2022-09-09T00:01:37;15.90;99.90
49242;DHT22;35079;52.704;13.814;2022-09-09T00:10:20;15.90;99.90
49242;DHT22;35079;52.704;13.814;2022-09-09T00:15:55;15.90;99.90
49242;DHT22;35079;52.704;13.814;2022-09-09T00:21:25;16.00;99.90
49242;DHT22;35079;52.704;13.814;2022-09-09T00:23:56;16.00;99.90
49242;DHT22;35079;52.704;13.814;2022-09-09T00:26:42;16.00;99.90
49242;DHT22;35079;52.704;13.814;2022-09-09T00:29:25;16.00;99.90
49242;DHT22;35079;52.704;13.814;2022-09-09T00:32:04;15.90;99.90
49242;DHT22;35079;52.704;13.814;2022-09-09T00:34:32;16.00;99.90
49242;DHT22;35079;52.704;13.814;2022-09-09T00:36:58;16.00;99.90
49242;DHT22;35079;52.704;13.814;2022-09-09T00:39:32;16.00;99.90
49242;DHT22;35079;52.704;13.814;2022-09-09T00:55:49;15.80;99.90
49242;DHT22;35079;52.704;13.814;2022-09-09T00:58:17;15.80;99.90
49242;DHT22;35079;52.704;13.814;2022-09-09T01:00:46;15.80;99.90
49242;DHT22;35079;52.704;13.814;2022-09-09T01:17:24;15.40;99.90
49242;DHT22;35079;52.704;13.814;2022-09-09T01:25:56;15.20;99.90
49242;DHT22;35079;52.704;13.814;2022-09-09T01:28:29;15.30;99.90
49242;DHT22;35079;52.704;13.814;2022-09-09T01:30:57;15.20;99.90
49242;DHT22;35079;52.704;13.814;2022-09-09T01:33:24;15.20;99.90
49242;DHT22;35079;52.704;13.814;2022-09-09T01:38:41;15.30;99.90
49242;DHT22;35079;52.704;13.814;2022-09-09T01:41:07;15.30;99.90
49242;DHT22;35079;52.704;13.814;2022-09-09T01:43:33;15.30;99.90
49242;DHT22;35079;52.704;13.814;2022-09-09T01:46:00;15.30;99.90
49242;DHT22;35079;52.704;13.814;2022-09-09T01:48:27;15.30;99.90
49242;DHT22;35079;52.704;13.814;2022-09-09T01:50:53;15.40;99.90
49242;DHT22;35079;52.704;13.814;2022-09-09T01:53:21;15.40;99.90
49242;DHT22;35079;52.704;13.814;2022-09-09T02:04:06;15.30;99.90
49242;DHT22;35079;52.704;13.814;2022-09-09T02:06:38;15.30;99.90
49242;DHT22;35079;52.704;13.814;2022-09-09T02:09:10;15.20;99.90
49242;DHT22;35079;52.704;13.814;2022-09-09T02:11:37;15.20;99.90
49242;DHT22;35079;52.704;13.814;2022-09-09T02:14:15;15.20;99.90
49242;DHT22;35079;52.704;13.814;2022-09-09T02:16:47;15.10;99.90
49242;DHT22;35079;52.704;13.814;2022-09-09T02:19:21;15.10;99.90
49242;DHT22;35079;52.704;13.814;2022-09-09T02:21:54;15.10;99.90
49242;DHT22;35079;52.704;13.814;2022-09-09T02:24:21;15.00;99.90
49242;DHT22;35079;52.704;13.814;2022-09-09T02:26:50;15.00;99.90
49242;DHT22;35079;52.704;13.814;2022-09-09T02:29:40;15.00;99.90
49242;DHT22;35079;52.704;13.814;2022-09-09T02:32:11;14.90;99.90
49242;DHT22;35079;52.704;13.814;2022-09-09T02:34:42;14.80;99.90
49242;DHT22;35079;52.704;13.814;2022-09-09T02:37:10;14.80;99.90
49242;DHT22;35079;52.704;13.814;2022-09-09T02:39:36;14.80;99.90
49242;DHT22;35079;52.704;13.814;2022-09-09T02:42:04;14.70;99.90
49242;DHT22;35079;52.704;13.814;2022-09-09T02:44:29;14.60;99.90
49242;DHT22;35079;52.704;13.814;2022-09-09T02:49:38;14.60;99.90
49242;DHT22;35079;52.704;13.814;2022-09-09T02:52:08;14.60;99.90
49242;DHT22;35079;52.704;13.814;2022-09-09T02:54:38;14.60;99.90
49242;DHT22;35079;52.704;13.814;2022-09-09T02:57:21;14.50;99.90
49242;DHT22;35079;52.704;13.814;2022-09-09T02:59:48;14.50;99.90
49242;DHT22;35079;52.704;13.814;2022-09-09T03:02:15;14.50;99.90
49242;DHT22;35079;52.704;13.814;2022-09-09T03:04:40;14.40;99.90
49242;DHT22;35079;52.704;13.814;2022-09-09T03:07:09;14.40;99.90
49242;DHT22;35079;52.704;13.814;2022-09-09T03:09:35;14.40;99.90
49242;DHT22;35079;52.704;13.814;2022-09-09T03:12:01;14.40;99.90
49242;DHT22;35079;52.704;13.814;2022-09-09T03:14:27;14.40;99.90
49242;DHT22;35079;52.704;13.814;2022-09-09T03:16:53;14.30;99.90
49242;DHT22;35079;52.704;13.814;2022-09-09T03:19:20;14.30;99.90
49242;DHT22;35079;52.704;13.814;2022-09-09T03:21:47;14.20;99.90
49242;DHT22;35079;52.704;13.814;2022-09-09T03:24:13;14.30;99.90
49242;DHT22;35079;52.704;13.814;2022-09-09T03:26:40;14.20;99.90
49242;DHT22;35079;52.704;13.814;2022-09-09T03:29:07;14.20;99.90
49242;DHT22;35079;52.704;13.814;2022-09-09T03:31:34;14.20;99.90
49242;DHT22;35079;52.704;13.814;2022-09-09T03:34:01;14.10;99.90
49242;DHT22;35079;52.704;13.814;2022-09-09T03:36:27;14.10;99.90
49242;DHT22;35079;52.704;13.814;2022-09-09T03:38:53;14.10;99.90
49242;DHT22;35079;52.704;13.814;2022-09-09T03:41:23;14.20;99.90
49242;DHT22;35079;52.704;13.814;2022-09-09T03:43:52;14.10;99.90
49242;DHT22;35079;52.704;13.814;2022-09-09T03:46:23;14.10;99.90
49242;DHT22;35079;52.704;13.814;2022-09-09T03:48:49;14.10;99.90
49242;DHT22;35079;52.704;13.814;2022-09-09T03:51:15;14.10;99.90
49242;DHT22;35079;52.704;13.814;2022-09-09T03:53:41;14.20;99.90
49242;DHT22;35079;52.704;13.814;2022-09-09T03:56:09;14.10;99.90
49242;DHT22;35079;52.704;13.814;2022-09-09T03:58:36;14.10;99.90
49242;DHT22;35079;52.704;13.814;2022-09-09T04:01:10;14.10;99.90
49242;DHT22;35079;52.704;13.814;2022-09-09T04:03:36;14.10;99.90
49242;DHT22;35079;52.704;13.814;2022-09-09T04:06:06;14.00;99.90
49242;DHT22;35079;52.704;13.814;2022-09-09T04:08:33;14.00;99.90
49242;DHT22;35079;52.704;13.814;2022-09-09T04:10:59;14.00;99.90
49242;DHT22;35079;52.704;13.814;2022-09-09T04:13:27;14.00;99.90
49242;DHT22;35079;52.704;13.814;2022-09-09T04:15:58;14.00;99.90
49242;DHT22;35079;52.704;13.814;2022-09-09T04:18:25;14.00;99.90
49242;DHT22;35079;52.704;13.814;2022-09-09T04:20:52;13.90;99.90
49242;DHT22;35079;52.704;13.814;2022-09-09T04:23:18;14.00;99.90
49242;DHT22;35079;52.704;13.814;2022-09-09T04:25:51;13.90;99.90
49242;DHT22;35079;52.704;13.814;2022-09-09T04:28:19;13.90;99.90
49242;DHT22;35079;52.704;13.814;2022-09-09T04:30:45;13.90;99.90
49242;DHT22;35079;52.704;13.814;2022-09-09T04:33:11;13.80;99.90
49242;DHT22;35079;52.704;13.814;2022-09-09T04:35:38;13.80;99.90
49242;DHT22;35079;52.704;13.814;2022-09-09T04:38:04;13.90;99.90
49242;DHT22;35079;52.704;13.814;2022-09-09T04:40:31;13.90;99.90
49242;DHT22;35079;52.704;13.814;2022-09-09T04:43:01;13.90;99.90
49242;DHT22;35079;52.704;13.814;2022-09-09T04:45:28;13.80;99.90
49242;DHT22;35079;52.704;13.814;2022-09-09T04:47:54;13.80;99.90
49242;DHT22;35079;52.704;13.814;2022-09-09T04:50:19;13.80;99.90
49242;DHT22;35079;52.704;13.814;2022-09-09T04:52:45;13.90;99.90
49242;DHT22;35079;52.704;13.814;2022-09-09T04:55:11;13.90;99.90
49242;DHT22;35079;52.704;13.814;2022-09-09T04:57:38;13.90;99.90
49242;DHT22;35079;52.704;13.814;2022-09-09T05:00:04;13.90;99.90
49242;DHT22;35079;52.704;13.814;2022-09-09T05:02:30;14.00;99.90
49242;DHT22;35079;52.704;13.814;2022-09-09T05:04:57;14.00;99.90
49242;DHT22;35079;52.704;13.814;2022-09-09T05:07:29;14.00;99.90
49242;DHT22;35079;52.704;13.814;2022-09-09T05:09:56;14.20;99.90
49242;DHT22;35079;52.704;13.814;2022-09-09T05:12:22;14.10;99.90
49242;DHT22;35079;52.704;13.814;2022-09-09T05:14:49;14.20;99.90
49242;DHT22;35079;52.704;13.814;2022-09-09T05:17:15;14.20;99.90
49242;DHT22;35079;52.704;13.814;2022-09-09T05:19:41;14.30;99.90
49242;DHT22;35079;52.704;13.814;2022-09-09T05:22:07;14.30;99.90
49242;DHT22;35079;52.704;13.814;2022-09-09T05:24:33;14.30;99.90
49242;DHT22;35079;52.704;13.814;2022-09-09T05:26:59;14.30;99.90
49242;DHT22;35079;52.704;13.814;2022-09-09T05:29:27;14.50;99.90
49242;DHT22;35079;52.704;13.814;2022-09-09T05:31:52;14.50;99.90
49242;DHT22;35079;52.704;13.814;2022-09-09T05:34:18;14.60;99.90
49242;DHT22;35079;52.704;13.814;2022-09-09T05:36:44;14.60;99.90
49242;DHT22;35079;52.704;13.814;2022-09-09T05:39:10;14.70;99.90
49242;DHT22;35079;52.704;13.814;2022-09-09T05:41:37;14.70;99.90
49242;DHT22;35079;52.704;13.814;2022-09-09T05:44:03;14.90;99.90
49242;DHT22;35079;52.704;13.814;2022-09-09T05:46:29;14.80;99.90
49242;DHT22;35079;52.704;13.814;2022-09-09T05:48:55;15.00;99.90
49242;DHT22;35079;52.704;13.814;2022-09-09T05:51:23;15.00;99.90
49242;DHT22;35079;52.704;13.814;2022-09-09T05:53:50;15.10;99.90
49242;DHT22;35079;52.704;13.814;2022-09-09T05:56:17;15.20;99.90
49242;DHT22;35079;52.704;13.814;2022-09-09T05:58:44;15.20;99.90
49242;DHT22;35079;52.704;13.814;2022-09-09T06:01:12;15.30;99.90
49242;DHT22;35079;52.704;13.814;2022-09-09T06:03:40;15.30;99.90
49242;DHT22;35079;52.704;13.814;2022-09-09T06:06:08;15.40;99.90
49242;DHT22;35079;52.704;13.814;2022-09-09T06:08:35;15.40;99.90
49242;DHT22;35079;52.704;13.814;2022-09-09T06:11:06;15.60;99.90
49242;DHT22;35079;52.704;13.814;2022-09-09T06:13:32;15.50;99.90
49242;DHT22;35079;52.704;13.814;2022-09-09T06:15:58;15.70;99.90
49242;DHT22;35079;52.704;13.814;2022-09-09T06:18:25;15.70;99.90
49242;DHT22;35079;52.704;13.814;2022-09-09T06:20:58;15.60;99.90
49242;DHT22;35079;52.704;13.814;2022-09-09T06:23:26;15.80;99.90
49242;DHT22;35079;52.704;13.814;2022-09-09T06:26:01;15.80;99.90
49242;DHT22;35079;52.704;13.814;2022-09-09T06:28:26;15.90;99.90
49242;DHT22;35079;52.704;13.814;2022-09-09T06:30:58;15.90;99.90
49242;DHT22;35079;52.704;13.814;2022-09-09T06:33:24;16.10;99.90
49242;DHT22;35079;52.704;13.814;2022-09-09T06:35:53;16.00;99.90
49242;DHT22;35079;52.704;13.814;2022-09-09T06:38:19;16.20;99.90
49242;DHT22;35079;52.704;13.814;2022-09-09T06:40:55;16.10;99.90
49242;DHT22;35079;52.704;13.814;2022-09-09T06:43:22;16.20;99.90
49242;DHT22;35079;52.704;13.814;2022-09-09T06:45:56;16.20;99.90
49242;DHT22;35079;52.704;13.814;2022-09-09T06:48:22;16.20;99.90
49242;DHT22;35079;52.704;13.814;2022-09-09T06:50:48;16.20;99.90
49242;DHT22;35079;52.704;13.814;2022-09-09T06:53:18;16.20;99.90
49242;DHT22;35079;52.704;13.814;2022-09-09T06:55:47;16.40;99.90
49242;DHT22;35079;52.704;13.814;2022-09-09T06:58:13;16.40;99.90
49242;DHT22;35079;52.704;13.814;2022-09-09T07:00:39;16.50;99.90
49242;DHT22;35079;52.704;13.814;2022-09-09T07:03:04;16.50;99.90
49242;DHT22;35079;52.704;13.814;2022-09-09T07:05:31;16.50;99.90
49242;DHT22;35079;52.704;13.814;2022-09-09T07:07:57;16.70;99.90
49242;DHT22;35079;52.704;13.814;2022-09-09T07:10:23;16.60;99.90
49242;DHT22;35079;52.704;13.814;2022-09-09T07:12:52;16.70;99.90
49242;DHT22;35079;52.704;13.814;2022-09-09T07:15:18;16.80;99.90
49242;DHT22;35079;52.704;13.814;2022-09-09T07:17:44;16.80;99.90
49242;DHT22;35079;52.704;13.814;2022-09-09T07:20:10;16.90;99.90
49242;DHT22;35079;52.704;13.814;2022-09-09T07:22:36;17.00;99.90
49242;DHT22;35079;52.704;13.814;2022-09-09T07:25:03;17.10;99.90
49242;DHT22;35079;52.704;13.814;2022-09-09T07:27:28;17.10;99.90
49242;DHT22;35079;52.704;13.814;2022-09-09T07:29:54;17.10;99.90
49242;DHT22;35079;52.704;13.814;2022-09-09T07:32:20;17.20;99.90
49242;DHT22;35079;52.704;13.814;2022-09-09T07:34:46;17.20;99.90
49242;DHT22;35079;52.704;13.814;2022-09-09T07:37:12;17.20;99.90
49242;DHT22;35079;52.704;13.814;2022-09-09T07:39:39;17.40;99.90
49242;DHT22;35079;52.704;13.814;2022-09-09T07:42:05;17.50;99.90
49242;DHT22;35079;52.704;13.814;2022-09-09T07:44:31;17.40;99.90
49242;DHT22;35079;52.704;13.814;2022-09-09T07:47:00;17.60;99.90
49242;DHT22;35079;52.704;13.814;2022-09-09T07:49:26;17.80;99.90
49242;DHT22;35079;52.704;13.814;2022-09-09T07:51:51;17.80;99.90
49242;DHT22;35079;52.704;13.814;2022-09-09T07:54:18;17.80;99.90
49242;DHT22;35079;52.704;13.814;2022-09-09T07:56:46;17.90;99.90
49242;DHT22;35079;52.704;13.814;2022-09-09T07:59:12;18.00;99.90
49242;DHT22;35079;52.704;13.814;2022-09-09T08:01:42;18.00;99.90
49242;DHT22;35079;52.704;13.814;2022-09-09T08:04:18;18.10;99.90
49242;DHT22;35079;52.704;13.814;2022-09-09T08:06:48;18.20;99.90
49242;DHT22;35079;52.704;13.814;2022-09-09T08:09:15;18.50;99.90
49242;DHT22;35079;52.704;13.814;2022-09-09T08:11:41;18.80;99.90
49242;DHT22;35079;52.704;13.814;2022-09-09T08:14:08;18.90;99.90
49242;DHT22;35079;52.704;13.814;2022-09-09T08:16:37;19.10;99.90
49242;DHT22;35079;52.704;13.814;2022-09-09T08:19:04;19.50;99.90
49242;DHT22;35079;52.704;13.814;2022-09-09T08:21:32;19.80;99.90
49242;DHT22;35079;52.704;13.814;2022-09-09T08:24:00;20.30;99.90
49242;DHT22;35079;52.704;13.814;2022-09-09T08:26:40;20.80;99.90
49242;DHT22;35079;52.704;13.814;2022-09-09T08:29:10;21.10;99.90
49242;DHT22;35079;52.704;13.814;2022-09-09T08:31:39;21.10;99.90
49242;DHT22;35079;52.704;13.814;2022-09-09T08:34:06;21.00;99.90
49242;DHT22;35079;52.704;13.814;2022-09-09T08:36:37;20.90;99.90
49242;DHT22;35079;52.704;13.814;2022-09-09T08:39:05;20.90;99.90
49242;DHT22;35079;52.704;13.814;2022-09-09T08:47:21;20.80;99.90
49242;DHT22;35079;52.704;13.814;2022-09-09T08:57:52;21.10;99.90
49242;DHT22;35079;52.704;13.814;2022-09-09T09:00:19;21.00;99.90
49242;DHT22;35079;52.704;13.814;2022-09-09T09:02:53;20.90;99.90
49242;DHT22;35079;52.704;13.814;2022-09-09T09:08:20;21.50;99.90
49242;DHT22;35079;52.704;13.814;2022-09-09T09:10:50;21.90;99.90
49242;DHT22;35079;52.704;13.814;2022-09-09T09:13:34;22.00;99.90
49242;DHT22;35079;52.704;13.814;2022-09-09T09:18:47;21.90;99.90
49242;DHT22;35079;52.704;13.814;2022-09-09T09:21:18;21.90;99.90
49242;DHT22;35079;52.704;13.814;2022-09-09T09:23:55;21.90;99.90
49242;DHT22;35079;52.704;13.814;2022-09-09T09:26:23;21.50;99.90
49242;DHT22;35079;52.704;13.814;2022-09-09T09:28:54;21.30;99.90
49242;DHT22;35079;52.704;13.814;2022-09-09T09:31:21;21.20;99.90
49242;DHT22;35079;52.704;13.814;2022-09-09T09:33:53;21.30;99.90
49242;DHT22;35079;52.704;13.814;2022-09-09T09:36:34;21.10;99.90
49242;DHT22;35079;52.704;13.814;2022-09-09T09:39:01;21.00;99.90
49242;DHT22;35079;52.704;13.814;2022-09-09T09:41:35;20.90;99.90
49242;DHT22;35079;52.704;13.814;2022-09-09T09:44:02;20.80;99.90
49242;DHT22;35079;52.704;13.814;2022-09-09T09:46:28;20.80;99.90
49242;DHT22;35079;52.704;13.814;2022-09-09T09:49:12;21.10;99.90
49242;DHT22;35079;52.704;13.814;2022-09-09T09:51:39;21.70;99.90
49242;DHT22;35079;52.704;13.814;2022-09-09T09:54:09;22.20;99.90
49242;DHT22;35079;52.704;13.814;2022-09-09T09:56:40;22.70;99.90
49242;DHT22;35079;52.704;13.814;2022-09-09T09:59:23;23.70;99.90
49242;DHT22;35079;52.704;13.814;2022-09-09T10:04:38;24.30;99.90
49242;DHT22;35079;52.704;13.814;2022-09-09T10:07:20;23.90;99.90
49242;DHT22;35079;52.704;13.814;2022-09-09T10:09:52;23.20;99.90
49242;DHT22;35079;52.704;13.814;2022-09-09T10:17:40;22.30;99.90
49242;DHT22;35079;52.704;13.814;2022-09-09T10:22:35;22.20;99.90
49242;DHT22;35079;52.704;13.814;2022-09-09T10:25:42;22.60;99.90
49242;DHT22;35079;52.704;13.814;2022-09-09T10:33:48;24.30;99.90
49242;DHT22;35079;52.704;13.814;2022-09-09T10:36:22;24.00;99.90
49242;DHT22;35079;52.704;13.814;2022-09-09T10:39:12;23.70;99.90
49242;DHT22;35079;52.704;13.814;2022-09-09T10:42:05;23.70;99.90
49242;DHT22;35079;52.704;13.814;2022-09-09T10:53:18;24.20;99.90
49242;DHT22;35079;52.704;13.814;2022-09-09T10:55:53;24.00;99.90
49242;DHT22;35079;52.704;13.814;2022-09-09T10:58:29;23.80;99.90
49242;DHT22;35079;52.704;13.814;2022-09-09T11:01:03;23.50;99.90
49242;DHT22;35079;52.704;13.814;2022-09-09T11:03:29;23.40;99.90
49242;DHT22;35079;52.704;13.814;2022-09-09T11:06:04;23.40;99.90
49242;DHT22;35079;52.704;13.814;2022-09-09T11:08:32;23.30;99.90
49242;DHT22;35079;52.704;13.814;2022-09-09T11:16:22;23.50;99.90
49242;DHT22;35079;52.704;13.814;2022-09-09T11:18:53;23.60;99.90
49242;DHT22;35079;52.704;13.814;2022-09-09T11:21:47;23.80;99.90
49242;DHT22;35079;52.704;13.814;2022-09-09T11:24:26;23.80;99.90
49242;DHT22;35079;52.704;13.814;2022-09-09T11:27:05;24.00;99.90
49242;DHT22;35079;52.704;13.814;2022-09-09T11:35:02;23.90;99.90
49242;DHT22;35079;52.704;13.814;2022-09-09T11:40:26;24.90;99.90
49242;DHT22;35079;52.704;13.814;2022-09-09T11:43:24;25.90;99.90
49242;DHT22;35079;52.704;13.814;2022-09-09T11:45:57;27.30;98.00
49242;DHT22;35079;52.704;13.814;2022-09-09T11:48:41;28.30;96.90
49242;DHT22;35079;52.704;13.814;2022-09-09T11:51:27;29.40;92.70
49242;DHT22;35079;52.704;13.814;2022-09-09T11:53:57;30.20;88.70
49242;DHT22;35079;52.704;13.814;2022-09-09T11:56:42;30.80;84.30
49242;DHT22;35079;52.704;13.814;2022-09-09T11:59:49;31.40;82.90
49242;DHT22;35079;52.704;13.814;2022-09-09T12:02:25;30.80;78.40
49242;DHT22;35079;52.704;13.814;2022-09-09T12:05:07;30.80;79.10
49242;DHT22;35079;52.704;13.814;2022-09-09T12:07:53;31.00;77.60
49242;DHT22;35079;52.704;13.814;2022-09-09T12:10:29;31.00;76.90
49242;DHT22;35079;52.704;13.814;2022-09-09T12:12:55;31.40;78.80
49242;DHT22;35079;52.704;13.814;2022-09-09T12:15:32;32.00;75.20
49242;DHT22;35079;52.704;13.814;2022-09-09T12:17:58;32.30;71.20
49242;DHT22;35079;52.704;13.814;2022-09-09T12:20:39;31.80;69.80
49242;DHT22;35079;52.704;13.814;2022-09-09T12:26:03;30.40;75.60
49242;DHT22;35079;52.704;13.814;2022-09-09T12:32:28;29.60;77.60
49242;DHT22;35079;52.704;13.814;2022-09-09T12:36:58;28.40;80.30
49242;DHT22;35079;52.704;13.814;2022-09-09T12:39:38;27.90;78.80
49242;DHT22;35079;52.704;13.814;2022-09-09T12:42:16;27.60;81.30
49242;DHT22;35079;52.704;13.814;2022-09-09T12:44:51;27.00;83.50
49242;DHT22;35079;52.704;13.814;2022-09-09T12:47:19;26.50;88.00
49242;DHT22;35079;52.704;13.814;2022-09-09T12:49:47;26.40;86.80
49242;DHT22;35079;52.704;13.814;2022-09-09T12:52:29;26.00;85.60
49242;DHT22;35079;52.704;13.814;2022-09-09T12:54:56;26.10;85.90
49242;DHT22;35079;52.704;13.814;2022-09-09T12:57:24;26.30;86.80
49242;DHT22;35079;52.704;13.814;2022-09-09T12:59:51;26.00;84.90
49242;DHT22;35079;52.704;13.814;2022-09-09T13:02:23;25.40;88.40
49242;DHT22;35079;52.704;13.814;2022-09-09T13:04:50;25.50;89.20
49242;DHT22;35079;52.704;13.814;2022-09-09T13:07:17;25.50;90.40
49242;DHT22;35079;52.704;13.814;2022-09-09T13:09:45;25.50;90.50
49242;DHT22;35079;52.704;13.814;2022-09-09T13:12:23;25.60;90.50
49242;DHT22;35079;52.704;13.814;2022-09-09T13:14:53;25.50;90.00
49242;DHT22;35079;52.704;13.814;2022-09-09T13:17:25;25.00;89.60
49242;DHT22;35079;52.704;13.814;2022-09-09T13:19:52;24.90;89.60
49242;DHT22;35079;52.704;13.814;2022-09-09T13:22:35;25.00;91.10
49242;DHT22;35079;52.704;13.814;2022-09-09T13:25:35;24.80;90.90
49242;DHT22;35079;52.704;13.814;2022-09-09T13:28:18;24.70;90.50
49242;DHT22;35079;52.704;13.814;2022-09-09T13:31:05;24.60;91.20
49242;DHT22;35079;52.704;13.814;2022-09-09T13:33:36;24.30;90.50
49242;DHT22;35079;52.704;13.814;2022-09-09T13:36:10;24.20;92.00
49242;DHT22;35079;52.704;13.814;2022-09-09T13:38:40;24.20;93.00
49242;DHT22;35079;52.704;13.814;2022-09-09T13:41:08;24.10;91.90
49242;DHT22;35079;52.704;13.814;2022-09-09T13:43:45;24.00;92.60
49242;DHT22;35079;52.704;13.814;2022-09-09T13:46:35;24.10;93.10
49242;DHT22;35079;52.704;13.814;2022-09-09T13:51:37;24.30;93.70
49242;DHT22;35079;52.704;13.814;2022-09-09T13:54:08;24.40;93.80
49242;DHT22;35079;52.704;13.814;2022-09-09T13:56:35;24.40;94.10
49242;DHT22;35079;52.704;13.814;2022-09-09T13:59:01;24.60;94.00
49242;DHT22;35079;52.704;13.814;2022-09-09T14:01:27;24.70;93.30
49242;DHT22;35079;52.704;13.814;2022-09-09T14:03:54;24.80;93.20
49242;DHT22;35079;52.704;13.814;2022-09-09T14:06:20;24.80;92.70
49242;DHT22;35079;52.704;13.814;2022-09-09T14:08:47;24.70;92.70
49242;DHT22;35079;52.704;13.814;2022-09-09T14:11:14;24.50;93.60
49242;DHT22;35079;52.704;13.814;2022-09-09T14:13:40;24.40;94.00
49242;DHT22;35079;52.704;13.814;2022-09-09T14:16:06;24.10;93.70
49242;DHT22;35079;52.704;13.814;2022-09-09T14:18:32;23.90;93.80
49242;DHT22;35079;52.704;13.814;2022-09-09T14:20:57;23.70;93.90
49242;DHT22;35079;52.704;13.814;2022-09-09T14:23:24;23.60;94.20
49242;DHT22;35079;52.704;13.814;2022-09-09T14:25:51;23.50;94.60
49242;DHT22;35079;52.704;13.814;2022-09-09T14:28:17;23.40;94.80
49242;DHT22;35079;52.704;13.814;2022-09-09T14:30:43;23.60;94.80
49242;DHT22;35079;52.704;13.814;2022-09-09T14:33:15;23.70;94.70
49242;DHT22;35079;52.704;13.814;2022-09-09T14:35:41;23.60;93.40
49242;DHT22;35079;52.704;13.814;2022-09-09T14:38:08;23.60;93.60
49242;DHT22;35079;52.704;13.814;2022-09-09T14:40:35;23.50;94.50
49242;DHT22;35079;52.704;13.814;2022-09-09T14:43:01;23.50;94.60
49242;DHT22;35079;52.704;13.814;2022-09-09T14:45:27;23.40;95.70
49242;DHT22;35079;52.704;13.814;2022-09-09T14:47:54;23.20;95.70
49242;DHT22;35079;52.704;13.814;2022-09-09T14:50:20;23.30;96.10
49242;DHT22;35079;52.704;13.814;2022-09-09T14:52:46;23.30;95.60
49242;DHT22;35079;52.704;13.814;2022-09-09T14:55:12;23.50;95.50
49242;DHT22;35079;52.704;13.814;2022-09-09T14:57:38;23.60;95.50
49242;DHT22;35079;52.704;13.814;2022-09-09T15:00:05;23.70;95.30
49242;DHT22;35079;52.704;13.814;2022-09-09T15:02:32;23.70;95.40
49242;DHT22;35079;52.704;13.814;2022-09-09T15:04:58;23.70;94.80
49242;DHT22;35079;52.704;13.814;2022-09-09T15:07:26;23.80;95.20
49242;DHT22;35079;52.704;13.814;2022-09-09T15:09:53;23.80;95.10
49242;DHT22;35079;52.704;13.814;2022-09-09T15:12:19;23.70;95.60
49242;DHT22;35079;52.704;13.814;2022-09-09T15:14:46;23.30;93.60
49242;DHT22;35079;52.704;13.814;2022-09-09T15:17:12;23.00;95.10
49242;DHT22;35079;52.704;13.814;2022-09-09T15:19:38;23.10;95.80
49242;DHT22;35079;52.704;13.814;2022-09-09T15:22:04;23.00;96.70
49242;DHT22;35079;52.704;13.814;2022-09-09T15:24:33;23.10;94.70
49242;DHT22;35079;52.704;13.814;2022-09-09T15:26:59;23.10;95.30
49242;DHT22;35079;52.704;13.814;2022-09-09T15:29:25;23.10;95.60
49242;DHT22;35079;52.704;13.814;2022-09-09T15:31:51;22.90;95.10
49242;DHT22;35079;52.704;13.814;2022-09-09T15:34:18;23.00;94.80
49242;DHT22;35079;52.704;13.814;2022-09-09T15:36:44;22.90;94.80
49242;DHT22;35079;52.704;13.814;2022-09-09T15:39:15;22.70;95.40
49242;DHT22;35079;52.704;13.814;2022-09-09T15:41:42;22.60;96.10
49242;DHT22;35079;52.704;13.814;2022-09-09T15:44:09;22.50;96.00
49242;DHT22;35079;52.704;13.814;2022-09-09T15:46:40;22.60;96.40
49242;DHT22;35079;52.704;13.814;2022-09-09T15:49:12;22.60;95.90
49242;DHT22;35079;52.704;13.814;2022-09-09T15:51:42;22.60;97.30
49242;DHT22;35079;52.704;13.814;2022-09-09T15:54:10;22.60;97.70
49242;DHT22;35079;52.704;13.814;2022-09-09T15:56:37;22.60;97.90
49242;DHT22;35079;52.704;13.814;2022-09-09T15:59:03;22.40;97.90
49242;DHT22;35079;52.704;13.814;2022-09-09T16:01:30;22.50;97.50
49242;DHT22;35079;52.704;13.814;2022-09-09T16:03:57;22.30;96.40
49242;DHT22;35079;52.704;13.814;2022-09-09T16:06:24;22.00;96.70
49242;DHT22;35079;52.704;13.814;2022-09-09T16:08:52;21.90;97.60
49242;DHT22;35079;52.704;13.814;2022-09-09T16:11:30;21.80;97.60
49242;DHT22;35079;52.704;13.814;2022-09-09T16:13:56;21.70;98.20
49242;DHT22;35079;52.704;13.814;2022-09-09T16:16:24;21.50;99.10
49242;DHT22;35079;52.704;13.814;2022-09-09T16:18:52;21.30;98.70
49242;DHT22;35079;52.704;13.814;2022-09-09T16:21:20;21.40;99.20
49242;DHT22;35079;52.704;13.814;2022-09-09T16:23:47;21.30;98.80
49242;DHT22;35079;52.704;13.814;2022-09-09T16:26:15;21.20;98.50
49242;DHT22;35079;52.704;13.814;2022-09-09T16:28:41;21.10;98.50
49242;DHT22;35079;52.704;13.814;2022-09-09T16:31:18;21.20;98.60
49242;DHT22;35079;52.704;13.814;2022-09-09T16:33:44;21.10;98.90
49242;DHT22;35079;52.704;13.814;2022-09-09T16:36:13;20.90;99.60
49242;DHT22;35079;52.704;13.814;2022-09-09T16:38:39;21.00;99.50
49242;DHT22;35079;52.704;13.814;2022-09-09T16:41:06;20.90;99.80
49242;DHT22;35079;52.704;13.814;2022-09-09T16:43:36;20.80;99.90
49242;DHT22;35079;52.704;13.814;2022-09-09T16:46:03;20.50;99.90
49242;DHT22;35079;52.704;13.814;2022-09-09T16:48:35;20.40;99.90
49242;DHT22;35079;52.704;13.814;2022-09-09T16:51:04;20.30;99.90
49242;DHT22;35079;52.704;13.814;2022-09-09T16:53:31;20.20;99.90
49242;DHT22;35079;52.704;13.814;2022-09-09T16:55:56;20.40;99.90
49242;DHT22;35079;52.704;13.814;2022-09-09T16:58:22;20.20;99.90
49242;DHT22;35079;52.704;13.814;2022-09-09T17:00:48;20.20;99.90
49242;DHT22;35079;52.704;13.814;2022-09-09T17:03:14;20.10;99.90
49242;DHT22;35079;52.704;13.814;2022-09-09T17:05:40;19.90;99.90
49242;DHT22;35079;52.704;13.814;2022-09-09T17:08:07;20.00;99.90
49242;DHT22;35079;52.704;13.814;2022-09-09T17:10:34;20.00;99.90
49242;DHT22;35079;52.704;13.814;2022-09-09T17:13:05;19.90;99.90
49242;DHT22;35079;52.704;13.814;2022-09-09T17:15:30;20.00;99.90
49242;DHT22;35079;52.704;13.814;2022-09-09T17:17:56;20.00;99.90
49242;DHT22;35079;52.704;13.814;2022-09-09T17:20:21;20.00;99.90
49242;DHT22;35079;52.704;13.814;2022-09-09T17:22:47;19.90;99.90
49242;DHT22;35079;52.704;13.814;2022-09-09T17:25:14;19.90;99.90
49242;DHT22;35079;52.704;13.814;2022-09-09T17:27:40;19.80;99.90
49242;DHT22;35079;52.704;13.814;2022-09-09T17:30:06;19.80;99.90
49242;DHT22;35079;52.704;13.814;2022-09-09T17:32:32;19.60;99.90
49242;DHT22;35079;52.704;13.814;2022-09-09T17:34:57;19.70;99.90
49242;DHT22;35079;52.704;13.814;2022-09-09T17:37:23;19.50;99.90
49242;DHT22;35079;52.704;13.814;2022-09-09T17:39:48;19.50;99.90